Time;durP1;ratioP1;P1;durP2;ratioP2;P2;SDS_P1;SDS_P2;PMS_P1;PMS_P2;Temp;Humidity;BMP_temperature;BMP_pressure;BME280_temperature;BME280_humidity;BME280_pressure;Samples;Min_cycle;Max_cycle;Signal;HPM_P1;HPM_P2
2022/09/25 00:01:03;;;;;;;9.13;2.60;;;13.00;99.90;;;;;;5136177;27;20218;-86
2022/09/25 00:03:33;;;;;;;9.03;2.90;;;12.80;99.90;;;;;;5134920;27;20203;-85
2022/09/25 00:06:06;;;;;;;5.17;2.30;;;12.70;99.90;;;;;;5136056;27;20202;-85
2022/09/25 00:08:48;;;;;;;5.30;2.40;;;12.60;99.90;;;;;;5136683;27;20195;-86
2022/09/25 00:11:21;;;;;;;8.63;2.63;;;12.60;99.90;;;;;;5135777;27;20199;-86
2022/09/25 00:13:48;;;;;;;10.43;3.15;;;12.60;99.90;;;;;;5135435;27;20416;-89
2022/09/25 00:16:18;;;;;;;8.67;2.53;;;12.60;99.90;;;;;;5136226;27;20283;-89
2022/09/25 00:21:37;;;;;;;8.03;2.57;;;12.50;99.90;;;;;;5136031;27;20592;-88
2022/09/25 00:24:06;;;;;;;11.23;2.23;;;12.40;99.90;;;;;;5134299;27;20214;-87
2022/09/25 00:26:43;;;;;;;8.80;2.67;;;12.30;99.90;;;;;;5116823;27;20218;-88
2022/09/25 00:29:15;;;;;;;6.63;3.10;;;12.20;99.90;;;;;;5115491;28;20191;-88
2022/09/25 00:31:47;;;;;;;9.13;2.77;;;12.20;99.90;;;;;;5115133;28;20547;-88
2022/09/25 00:34:15;;;;;;;9.03;2.60;;;12.30;99.90;;;;;;5115357;28;20196;-88
2022/09/25 00:36:44;;;;;;;6.60;2.67;;;12.40;99.90;;;;;;5115102;28;20237;-89
2022/09/25 00:39:22;;;;;;;10.77;3.67;;;12.50;99.90;;;;;;5114449;28;20439;-88
2022/09/25 00:41:56;;;;;;;7.23;2.90;;;12.50;99.90;;;;;;5115011;28;20195;-88
2022/09/25 00:44:55;;;;;;;5.37;2.60;;;12.50;99.90;;;;;;5115138;28;20211;-88
2022/09/25 00:47:37;;;;;;;5.53;2.50;;;12.40;99.90;;;;;;5115378;28;20604;-89
2022/09/25 00:50:28;;;;;;;4.27;2.33;;;12.20;99.90;;;;;;5114981;28;20675;-87
2022/09/25 00:53:02;;;;;;;6.83;2.97;;;12.10;99.90;;;;;;5114864;28;20187;-89
2022/09/25 00:55:33;;;;;;;8.63;3.10;;;12.10;99.90;;;;;;5114908;28;20640;-89
2022/09/25 00:58:06;;;;;;;7.67;3.00;;;12.10;99.90;;;;;;5114644;28;20246;-88
2022/09/25 01:00:33;;;;;;;6.00;2.73;;;12.20;99.90;;;;;;5114627;28;20230;-88
2022/09/25 01:03:01;;;;;;;7.83;2.70;;;12.00;99.90;;;;;;5115180;28;20214;-87
2022/09/25 01:05:30;;;;;;;9.83;3.00;;;12.10;99.90;;;;;;5114972;28;20659;-89
2022/09/25 01:08:02;;;;;;;8.07;3.20;;;12.00;99.90;;;;;;5115323;28;20218;-89
2022/09/25 01:10:33;;;;;;;7.97;3.10;;;12.10;99.90;;;;;;5113689;28;20203;-88
2022/09/25 01:13:00;;;;;;;5.67;3.43;;;12.10;99.90;;;;;;5115110;28;20204;-90
2022/09/25 01:15:51;;;;;;;10.80;4.33;;;12.20;99.90;;;;;;5115575;28;20638;-87
2022/09/25 01:18:33;;;;;;;7.83;4.00;;;12.30;99.90;;;;;;5114739;28;20229;-89
2022/09/25 01:21:19;;;;;;;11.13;3.83;;;12.20;99.90;;;;;;5115664;28;20200;-90
2022/09/25 01:24:20;;;;;;;7.43;4.03;;;12.20;99.90;;;;;;5115200;28;20214;-88
2022/09/25 01:27:23;;;;;;;10.43;4.20;;;12.20;99.90;;;;;;5114792;28;20227;-86
2022/09/25 01:30:04;;;;;;;11.33;4.20;;;12.20;99.90;;;;;;5113879;28;20213;-89
2022/09/25 01:33:25;;;;;;;12.40;5.00;;;12.00;99.90;;;;;;5113849;28;20432;-88
2022/09/25 01:36:01;;;;;;;7.97;6.10;;;12.10;99.90;;;;;;5114952;28;20552;-89
2022/09/25 01:38:34;;;;;;;9.73;4.80;;;12.10;99.90;;;;;;5114421;28;20233;-89
2022/09/25 01:41:08;;;;;;;5.33;3.60;;;12.00;99.90;;;;;;5114628;28;20186;-89
2022/09/25 01:43:39;;;;;;;9.17;4.10;;;11.90;99.90;;;;;;5114493;28;20210;-87
2022/09/25 01:46:11;;;;;;;7.33;3.73;;;11.90;99.90;;;;;;5114582;28;20205;-88
2022/09/25 01:48:50;;;;;;;8.27;3.80;;;11.90;99.90;;;;;;5114523;28;20220;-88
2022/09/25 01:51:22;;;;;;;10.70;3.50;;;11.80;99.90;;;;;;5114571;28;20213;-88
2022/09/25 01:53:58;;;;;;;5.27;3.27;;;11.70;99.90;;;;;;5114369;28;20838;-88
2022/09/25 01:56:36;;;;;;;7.93;3.20;;;11.70;99.90;;;;;;5114588;28;20188;-88
2022/09/25 01:59:08;;;;;;;10.95;4.38;;;11.70;99.90;;;;;;5112837;28;20780;-88
2022/09/25 02:01:40;;;;;;;7.50;3.47;;;11.70;99.90;;;;;;5113953;28;20208;-88
2022/09/25 02:04:12;;;;;;;8.97;3.20;;;11.70;99.90;;;;;;5113936;28;20207;-88
2022/09/25 02:06:46;;;;;;;5.37;3.27;;;11.70;99.90;;;;;;5113919;28;20220;-88
2022/09/25 02:09:22;;;;;;;8.87;3.50;;;11.70;99.90;;;;;;5114505;28;20556;-88
2022/09/25 02:11:56;;;;;;;7.50;3.50;;;11.70;99.90;;;;;;5113675;28;20212;-89
2022/09/25 02:14:27;;;;;;;8.17;3.37;;;11.70;99.90;;;;;;5118431;28;20190;-89
2022/09/25 02:17:00;;;;;;;6.63;3.03;;;11.60;99.90;;;;;;5121876;27;20643;-88
2022/09/25 02:22:24;;;;;;;7.13;3.97;;;11.70;99.90;;;;;;5138492;27;20203;-88
2022/09/25 02:24:56;;;;;;;9.73;3.47;;;11.60;99.90;;;;;;5138473;27;20195;-88
2022/09/25 02:27:24;;;;;;;7.80;3.83;;;11.60;99.90;;;;;;5138425;27;20258;-88
2022/09/25 02:29:58;;;;;;;7.40;3.40;;;11.60;99.90;;;;;;5138500;27;20209;-88
2022/09/25 02:32:31;;;;;;;9.77;3.90;;;11.60;99.90;;;;;;5138429;27;20193;-88
2022/09/25 02:35:00;;;;;;;9.40;3.57;;;11.60;99.90;;;;;;5137356;27;20233;-88
2022/09/25 02:37:29;;;;;;;6.10;3.53;;;11.60;99.90;;;;;;5138296;27;20294;-89
2022/09/25 02:40:02;;;;;;;11.47;3.80;;;11.50;99.90;;;;;;5138108;27;20188;-89
2022/09/25 02:42:38;;;;;;;7.70;3.53;;;11.50;99.90;;;;;;5138131;27;20193;-88
2022/09/25 02:45:20;;;;;;;9.00;3.93;;;11.40;99.90;;;;;;5137990;27;20192;-89
2022/09/25 02:48:07;;;;;;;5.97;3.90;;;11.20;99.90;;;;;;5137794;27;20640;-89
2022/09/25 02:50:42;;;;;;;9.13;3.53;;;11.20;99.90;;;;;;5137627;27;20211;-88
2022/09/25 02:53:19;;;;;;;10.60;4.67;;;11.20;99.90;;;;;;5137271;27;20468;-89
2022/09/25 02:55:52;;;;;;;8.77;4.50;;;11.30;99.90;;;;;;5138028;27;20203;-87
2022/09/25 02:58:26;;;;;;;8.93;4.00;;;11.20;99.90;;;;;;5137804;27;20237;-88
2022/09/25 03:00:55;;;;;;;5.97;3.70;;;11.30;99.90;;;;;;5138248;27;20222;-89
2022/09/25 03:03:31;;;;;;;10.70;4.10;;;11.30;99.90;;;;;;5137975;27;20199;-88
2022/09/25 03:05:59;;;;;;;8.20;3.80;;;11.40;99.90;;;;;;5137388;27;20192;-88
2022/09/25 03:08:39;;;;;;;11.27;4.60;;;11.40;99.90;;;;;;5137610;27;20200;-89
2022/09/25 03:11:14;;;;;;;9.77;4.20;;;11.40;99.90;;;;;;5137946;27;20206;-89
2022/09/25 03:13:42;;;;;;;11.80;4.33;;;11.30;99.90;;;;;;5137625;27;20209;-88
2022/09/25 03:16:16;;;;;;;10.03;4.03;;;11.20;99.90;;;;;;5137880;27;20200;-88
2022/09/25 03:18:46;;;;;;;9.27;4.07;;;11.10;99.90;;;;;;5137258;27;20220;-88
2022/09/25 03:21:18;;;;;;;8.33;4.17;;;11.10;99.90;;;;;;5137283;27;20185;-90
2022/09/25 03:23:45;;;;;;;8.23;3.87;;;11.00;99.90;;;;;;5137223;27;20197;-87
2022/09/25 03:26:18;;;;;;;7.40;4.40;;;11.00;99.90;;;;;;5137790;27;20204;-89
2022/09/25 03:29:21;;;;;;;8.93;4.17;;;10.90;99.90;;;;;;5137558;27;20202;-88
2022/09/25 03:31:50;;;;;;;8.53;4.00;;;10.90;99.90;;;;;;5137275;27;20204;-89
2022/09/25 03:34:25;;;;;;;6.07;4.17;;;10.90;99.90;;;;;;5137107;27;20204;-88
2022/09/25 03:36:54;;;;;;;7.53;4.00;;;10.90;99.90;;;;;;5137189;27;20280;-88
2022/09/25 03:39:27;;;;;;;6.90;3.87;;;10.90;99.90;;;;;;5136914;27;20234;-88
2022/09/25 03:41:54;;;;;;;11.57;4.27;;;10.80;99.90;;;;;;5137346;27;20204;-88
2022/09/25 03:44:22;;;;;;;8.90;4.23;;;10.70;99.90;;;;;;5136812;27;20184;-88
2022/09/25 03:46:54;;;;;;;11.20;4.13;;;10.70;99.90;;;;;;5137022;27;20770;-88
2022/09/25 03:49:29;;;;;;;8.37;4.40;;;10.70;99.90;;;;;;5137026;27;20285;-90
2022/09/25 03:51:59;;;;;;;4.43;4.03;;;10.70;99.90;;;;;;5137157;27;20190;-88
2022/09/25 03:54:26;;;;;;;12.43;4.90;;;10.60;99.90;;;;;;5137513;27;20608;-88
2022/09/25 03:56:53;;;;;;;5.30;4.40;;;10.60;99.90;;;;;;5137252;27;20300;-89
2022/09/25 03:59:20;;;;;;;8.13;4.77;;;10.60;99.90;;;;;;5141835;27;20230;-89
2022/09/25 04:01:47;;;;;;;12.57;4.37;;;10.60;99.90;;;;;;5146541;27;20212;-90
2022/09/25 04:04:19;;;;;;;8.63;4.67;;;10.60;99.90;;;;;;5144516;27;20651;-91
2022/09/25 04:06:48;;;;;;;7.30;4.63;;;10.60;99.90;;;;;;5141538;27;20210;-89
2022/09/25 04:09:17;;;;;;;19.37;5.73;;;10.60;99.90;;;;;;5139936;27;20207;-90
2022/09/25 04:11:49;;;;;;;13.50;5.33;;;10.70;99.90;;;;;;5137935;27;20196;-89
2022/09/25 04:14:22;;;;;;;12.50;5.17;;;10.70;99.90;;;;;;5137108;27;20196;-90
2022/09/25 04:16:50;;;;;;;12.83;7.83;;;10.70;99.90;;;;;;5139565;27;20464;-90
2022/09/25 04:19:17;;;;;;;9.93;6.33;;;10.80;99.90;;;;;;5143684;27;20691;-89
2022/09/25 04:21:47;;;;;;;13.03;6.20;;;10.80;99.90;;;;;;5142917;27;20199;-89
2022/09/25 04:27:00;;;;;;;11.60;5.53;;;10.70;99.90;;;;;;5139795;27;20203;-89
2022/09/25 04:29:27;;;;;;;9.00;5.63;;;10.70;99.90;;;;;;5141293;27;20191;-88
2022/09/25 04:34:37;;;;;;;8.60;5.70;;;10.60;99.90;;;;;;5090970;27;20281;-90
2022/09/25 04:37:09;;;;;;;12.13;5.53;;;10.60;99.90;;;;;;5136149;27;20210;-90
2022/09/25 04:39:39;;;;;;;8.17;6.20;;;10.50;99.90;;;;;;5136367;27;20234;-90
2022/09/25 04:42:07;;;;;;;8.37;5.90;;;10.50;99.90;;;;;;5136517;27;20636;-89
2022/09/25 04:44:34;;;;;;;17.80;9.75;;;10.50;99.90;;;;;;5135299;27;20419;-90
2022/09/25 04:47:00;;;;;;;13.53;7.27;;;10.70;99.90;;;;;;5140437;27;20209;-90
2022/09/25 04:49:28;;;;;;;12.53;7.03;;;10.70;99.90;;;;;;5140738;27;20211;-91
2022/09/25 04:51:59;;;;;;;7.70;6.03;;;10.60;99.90;;;;;;5140465;27;20199;-90
2022/09/25 04:54:28;;;;;;;9.87;6.20;;;10.50;99.90;;;;;;5136682;27;20634;-90
2022/09/25 04:57:01;;;;;;;12.33;5.93;;;10.50;99.90;;;;;;5136082;27;20301;-90
2022/09/25 04:59:34;;;;;;;8.47;6.37;;;10.50;99.90;;;;;;5135778;27;20215;-89
2022/09/25 05:02:01;;;;;;;11.63;5.53;;;10.50;99.90;;;;;;5122948;27;20218;-90
2022/09/25 05:04:30;;;;;;;10.30;6.67;;;10.40;99.90;;;;;;5132980;27;20208;-90
2022/09/25 05:06:57;;;;;;;11.17;6.00;;;10.50;99.90;;;;;;5115282;28;20201;-91
2022/09/25 05:09:31;;;;;;;11.83;5.93;;;10.40;99.90;;;;;;5122476;27;20209;-91
2022/09/25 05:12:01;;;;;;;9.10;5.77;;;10.40;99.90;;;;;;5114942;28;20196;-91
2022/09/25 05:14:31;;;;;;;12.07;5.97;;;10.40;99.90;;;;;;5113859;28;20192;-91
2022/09/25 05:16:58;;;;;;;10.07;6.23;;;10.20;99.90;;;;;;5114849;28;20206;-90
2022/09/25 05:19:28;;;;;;;9.63;5.77;;;10.30;99.90;;;;;;5114467;28;20226;-91
2022/09/25 05:21:57;;;;;;;11.37;5.97;;;10.40;99.90;;;;;;5114965;28;20528;-91
2022/09/25 05:24:31;;;;;;;9.90;6.00;;;10.40;99.90;;;;;;5114868;28;20196;-89
2022/09/25 05:27:03;;;;;;;11.07;5.90;;;10.40;99.90;;;;;;5114850;28;20283;-88
2022/09/25 05:29:31;;;;;;;10.67;5.57;;;10.50;99.90;;;;;;5114761;28;20227;-89
2022/09/25 05:32:02;;;;;;;9.37;5.93;;;10.50;99.90;;;;;;5114607;28;20196;-88
2022/09/25 05:34:35;;;;;;;13.77;6.17;;;10.50;99.90;;;;;;5114633;28;20573;-89
2022/09/25 05:37:07;;;;;;;8.20;5.70;;;10.50;99.90;;;;;;5114827;28;20193;-91
2022/09/25 05:39:41;;;;;;;12.77;7.82;;;10.50;99.90;;;;;;5114201;28;20432;-89
2022/09/25 05:42:08;;;;;;;11.53;6.60;;;10.30;99.90;;;;;;5114317;28;20204;-87
2022/09/25 05:44:40;;;;;;;14.90;6.77;;;10.10;99.90;;;;;;5114689;28;20204;-90
2022/09/25 05:47:07;;;;;;;16.07;7.17;;;10.20;99.90;;;;;;5115378;28;20204;-90
2022/09/25 05:49:34;;;;;;;10.60;6.50;;;10.20;99.90;;;;;;5118643;28;20206;-90
2022/09/25 05:52:02;;;;;;;12.10;6.90;;;10.20;99.90;;;;;;5118666;28;20192;-90
2022/09/25 05:54:29;;;;;;;16.17;7.10;;;10.20;99.90;;;;;;5118896;28;20207;-91
2022/09/25 05:56:57;;;;;;;13.47;7.03;;;10.20;99.90;;;;;;5118264;28;20242;-90
2022/09/25 05:59:24;;;;;;;13.40;6.83;;;10.10;99.90;;;;;;5118143;28;20232;-89
2022/09/25 06:01:51;;;;;;;10.43;6.80;;;10.20;99.90;;;;;;5117764;28;20211;-90
2022/09/25 06:04:18;;;;;;;12.33;6.93;;;10.30;99.90;;;;;;5118332;28;20185;-89
2022/09/25 06:06:45;;;;;;;13.80;6.93;;;10.20;99.90;;;;;;5117981;28;20200;-91
2022/09/25 06:09:13;;;;;;;15.50;8.27;;;10.30;99.90;;;;;;5117881;28;20247;-91
2022/09/25 06:11:42;;;;;;;17.13;8.70;;;10.50;99.90;;;;;;5118415;28;20205;-89
2022/09/25 06:14:13;;;;;;;21.77;9.00;;;10.50;99.90;;;;;;5116552;28;20204;-89
2022/09/25 06:16:48;;;;;;;12.87;8.20;;;10.50;99.90;;;;;;5118472;28;20211;-90
2022/09/25 06:19:21;;;;;;;16.20;8.53;;;10.50;99.90;;;;;;5118023;28;20315;-90
2022/09/25 06:21:50;;;;;;;21.23;10.40;;;10.50;99.90;;;;;;5116991;28;20648;-90
2022/09/25 06:24:17;;;;;;;16.73;11.97;;;10.50;99.90;;;;;;5118030;28;20201;-90
2022/09/25 06:26:46;;;;;;;16.50;10.17;;;10.50;99.90;;;;;;5117986;28;20189;-90
2022/09/25 06:29:16;;;;;;;18.47;10.93;;;10.60;99.90;;;;;;5117225;28;20201;-89
2022/09/25 06:31:45;;;;;;;14.03;9.60;;;10.60;99.90;;;;;;5117802;28;20212;-89
2022/09/25 06:34:12;;;;;;;19.87;10.13;;;10.70;99.90;;;;;;5117930;28;20658;-90
2022/09/25 06:36:41;;;;;;;19.20;10.67;;;10.70;99.90;;;;;;5116920;28;20189;-89
2022/09/25 06:39:14;;;;;;;17.17;10.40;;;10.70;99.90;;;;;;5117649;28;20251;-89
2022/09/25 06:41:42;;;;;;;19.70;10.67;;;10.70;99.90;;;;;;5117321;28;20208;-89
2022/09/25 06:44:11;;;;;;;18.27;9.23;;;10.90;99.90;;;;;;5117659;28;20215;-88
2022/09/25 06:46:49;;;;;;;17.17;11.00;;;10.90;99.90;;;;;;5117536;28;20201;-90
2022/09/25 06:49:22;;;;;;;18.03;10.73;;;11.00;99.90;;;;;;5117421;28;20636;-90
2022/09/25 06:51:54;;;;;;;16.77;10.03;;;11.10;99.90;;;;;;5117519;28;20205;-89
2022/09/25 06:54:22;;;;;;;15.23;9.83;;;11.20;99.90;;;;;;5117374;28;20201;-90
2022/09/25 06:56:50;;;;;;;18.13;8.33;;;11.40;99.90;;;;;;5117129;28;20221;-90
2022/09/25 06:59:17;;;;;;;16.67;9.10;;;11.50;99.90;;;;;;5116944;28;20223;-90
2022/09/25 07:01:45;;;;;;;16.87;8.77;;;11.50;99.90;;;;;;5117466;28;20220;-89
2022/09/25 07:04:18;;;;;;;17.25;10.48;;;11.60;99.90;;;;;;5115628;28;20431;-91
2022/09/25 07:06:47;;;;;;;15.97;9.30;;;11.60;99.90;;;;;;5115969;28;20649;-89
2022/09/25 07:09:19;;;;;;;13.17;8.37;;;11.80;99.90;;;;;;5116168;28;20215;-90
2022/09/25 07:11:47;;;;;;;12.20;7.43;;;11.50;99.90;;;;;;5120792;28;20197;-90
2022/09/25 07:14:20;;;;;;;11.03;7.40;;;11.50;99.90;;;;;;5127616;28;20197;-89
2022/09/25 07:16:54;;;;;;;10.70;7.30;;;11.50;99.90;;;;;;5136529;28;20645;-91
2022/09/25 07:19:27;;;;;;;10.73;7.40;;;11.80;99.90;;;;;;5127977;28;20689;-90
2022/09/25 07:21:55;;;;;;;13.53;6.93;;;11.80;99.90;;;;;;5116170;28;20203;-90
2022/09/25 07:24:25;;;;;;;12.73;7.47;;;12.00;99.90;;;;;;5115841;28;20210;-91
2022/09/25 07:26:52;;;;;;;10.60;7.03;;;12.10;99.90;;;;;;5115885;28;20198;-88
2022/09/25 07:29:20;;;;;;;9.30;6.47;;;12.10;99.90;;;;;;5116021;28;20198;-93
2022/09/25 07:31:50;;;;;;;11.10;6.45;;;12.10;99.90;;;;;;5115630;28;20420;-90
2022/09/25 07:34:20;;;;;;;12.87;6.07;;;12.10;99.90;;;;;;5115839;28;20621;-90
2022/09/25 07:36:51;;;;;;;11.27;5.83;;;12.10;99.90;;;;;;5116649;28;20286;-90
2022/09/25 07:39:24;;;;;;;6.17;5.07;;;12.30;99.90;;;;;;5115742;28;20254;-90
2022/09/25 07:41:54;;;;;;;9.40;5.17;;;12.50;99.90;;;;;;5115297;28;20290;-89
2022/09/25 07:44:22;;;;;;;7.13;4.73;;;12.60;99.90;;;;;;5115460;28;20282;-90
2022/09/25 07:46:48;;;;;;;8.67;4.80;;;12.60;99.90;;;;;;5115345;28;20195;-88
2022/09/25 07:49:23;;;;;;;6.23;4.47;;;12.80;99.90;;;;;;5115388;28;20207;-90
2022/09/25 07:52:00;;;;;;;7.07;4.83;;;12.70;99.90;;;;;;5117321;28;20211;-87
2022/09/25 07:54:28;;;;;;;4.67;4.17;;;12.80;99.90;;;;;;5116625;28;20220;-89
2022/09/25 07:56:57;;;;;;;8.00;3.70;;;13.00;99.90;;;;;;5116134;28;20228;-89
2022/09/25 07:59:27;;;;;;;10.93;3.50;;;13.00;99.90;;;;;;5115788;28;20695;-88
2022/09/25 08:01:57;;;;;;;6.30;3.53;;;13.10;99.90;;;;;;5115038;28;20916;-89
2022/09/25 08:04:26;;;;;;;6.80;2.87;;;13.30;99.90;;;;;;5074356;28;1197882;-88
2022/09/25 08:06:54;;;;;;;4.93;2.90;;;13.30;99.90;;;;;;5116607;28;20204;-87
2022/09/25 08:09:27;;;;;;;5.97;2.90;;;13.30;99.90;;;;;;5115288;28;20314;-89
2022/09/25 08:11:55;;;;;;;5.97;2.47;;;13.30;99.90;;;;;;5116120;28;20282;-90
2022/09/25 08:14:24;;;;;;;5.53;2.73;;;13.30;99.90;;;;;;5115606;28;20663;-89
2022/09/25 08:16:56;;;;;;;5.13;2.50;;;13.50;99.90;;;;;;5116143;28;20262;-87
2022/09/25 08:19:31;;;;;;;8.80;2.73;;;13.60;99.90;;;;;;5115595;28;20228;-87
2022/09/25 08:22:00;;;;;;;4.57;2.57;;;13.90;99.90;;;;;;5115877;28;20253;-88
2022/09/25 08:24:29;;;;;;;3.07;2.47;;;14.10;99.90;;;;;;5115573;28;20203;-87
2022/09/25 08:26:55;;;;;;;4.77;1.90;;;14.00;99.90;;;;;;5114802;28;20558;-86
2022/09/25 08:29:23;;;;;;;8.93;2.30;;;14.10;99.90;;;;;;5115151;28;20514;-87
2022/09/25 08:32:03;;;;;;;4.37;1.70;;;14.20;99.90;;;;;;5115785;28;20239;-86
2022/09/25 08:34:37;;;;;;;5.07;2.23;;;14.20;99.90;;;;;;5116186;28;20226;-87
2022/09/25 08:37:04;;;;;;;4.27;2.03;;;14.20;99.90;;;;;;5115681;28;20192;-87
2022/09/25 08:39:39;;;;;;;5.03;2.07;;;14.30;99.90;;;;;;5114995;28;20228;-89
2022/09/25 08:42:29;;;;;;;2.63;1.47;;;14.40;99.90;;;;;;5115248;28;20212;-87
2022/09/25 08:50:36;;;;;;;1.93;0.73;;;14.60;99.90;;;;;;5075947;28;20213;-87
2022/09/25 08:53:07;;;;;;;3.70;1.40;;;14.80;99.90;;;;;;5114803;28;20204;-87
2022/09/25 08:58:29;;;;;;;4.18;1.60;;;15.00;99.90;;;;;;5114265;28;20404;-87
2022/09/25 09:01:01;;;;;;;2.77;1.37;;;15.20;99.90;;;;;;5114901;28;20230;-87
2022/09/25 09:03:31;;;;;;;4.03;1.50;;;15.20;99.90;;;;;;5114937;28;20216;-86
2022/09/25 09:06:03;;;;;;;5.70;1.53;;;14.80;99.90;;;;;;5116160;28;20204;-88
2022/09/25 09:08:33;;;;;;;2.13;1.37;;;15.00;99.90;;;;;;5116916;28;20205;-89
2022/09/25 09:11:04;;;;;;;4.00;1.47;;;15.10;99.90;;;;;;5114373;28;20293;-83
2022/09/25 09:13:39;;;;;;;3.40;1.40;;;15.20;99.90;;;;;;5113803;28;20209;-83
2022/09/25 09:16:14;;;;;;;4.70;1.20;;;15.30;99.90;;;;;;5114075;28;20206;-84
2022/09/25 09:18:42;;;;;;;5.77;1.27;;;15.40;99.90;;;;;;5114244;28;20672;-84
2022/09/25 09:21:21;;;;;;;5.30;1.10;;;15.40;99.90;;;;;;5113441;28;20233;-84
2022/09/25 09:23:55;;;;;;;5.10;1.27;;;15.40;99.90;;;;;;5129301;27;20211;-83
2022/09/25 09:26:32;;;;;;;2.13;0.93;;;15.50;99.90;;;;;;5134571;27;20216;-83
2022/09/25 09:29:26;;;;;;;2.40;1.47;;;15.60;99.90;;;;;;5134567;27;20198;-87
2022/09/25 09:32:02;;;;;;;1.10;0.83;;;15.60;99.90;;;;;;5129129;27;20208;-84
2022/09/25 09:34:56;;;;;;;1.73;1.10;;;15.60;99.90;;;;;;5134204;27;20208;-86
2022/09/25 09:37:48;;;;;;;5.70;1.83;;;15.80;99.90;;;;;;5134474;27;20659;-84
2022/09/25 09:40:33;;;;;;;5.37;2.27;;;16.20;99.90;;;;;;5134644;27;20223;-84
2022/09/25 09:43:27;;;;;;;3.67;1.90;;;16.10;99.90;;;;;;5134855;27;20192;-88
2022/09/25 09:46:03;;;;;;;6.13;2.23;;;16.00;99.90;;;;;;5135404;27;20199;-87
2022/09/25 09:48:38;;;;;;;4.90;2.03;;;15.80;99.90;;;;;;5134796;27;20199;-90
2022/09/25 09:51:11;;;;;;;5.90;2.00;;;15.60;99.90;;;;;;5134682;27;20217;-88
2022/09/25 09:53:43;;;;;;;6.40;1.93;;;15.60;99.90;;;;;;5142937;27;20199;-90
2022/09/25 09:56:13;;;;;;;4.77;2.40;;;15.40;99.90;;;;;;5129007;27;20230;-91
2022/09/25 09:58:49;;;;;;;6.63;2.37;;;15.40;99.90;;;;;;5129317;28;20554;-89
2022/09/25 10:01:24;;;;;;;3.27;1.90;;;15.40;99.90;;;;;;5134565;28;20669;-90
2022/09/25 10:03:58;;;;;;;3.27;1.63;;;15.60;99.90;;;;;;5134432;28;20216;-88
2022/09/25 10:06:29;;;;;;;7.63;2.53;;;15.90;99.90;;;;;;5134195;27;20662;-91
2022/09/25 10:08:57;;;;;;;6.30;1.80;;;16.00;99.90;;;;;;5134499;28;20217;-86
2022/09/25 10:11:26;;;;;;;5.40;2.37;;;16.10;99.90;;;;;;5134158;28;20561;-88
2022/09/25 10:13:55;;;;;;;5.07;2.10;;;16.20;99.90;;;;;;5128510;27;20212;-89
2022/09/25 10:16:23;;;;;;;6.80;1.93;;;15.90;99.90;;;;;;5134479;27;20215;-88
2022/09/25 10:18:53;;;;;;;3.50;2.07;;;15.70;99.90;;;;;;5134700;28;20207;-89
2022/09/25 10:21:23;;;;;;;6.57;2.10;;;15.60;99.90;;;;;;5134300;28;20218;-86
2022/09/25 10:23:52;;;;;;;2.77;1.97;;;15.60;99.90;;;;;;5134030;28;20550;-89
2022/09/25 10:26:32;;;;;;;5.03;1.60;;;15.60;99.90;;;;;;5134316;28;20305;-86
2022/09/25 10:29:01;;;;;;;5.27;1.83;;;15.50;99.90;;;;;;5134359;28;20242;-87
2022/09/25 10:31:30;;;;;;;4.53;1.57;;;15.50;99.90;;;;;;5134013;28;20200;-90
2022/09/25 10:34:01;;;;;;;2.13;1.20;;;15.60;99.90;;;;;;5135771;27;20230;-84
2022/09/25 10:36:34;;;;;;;5.40;2.20;;;15.80;99.90;;;;;;5137871;27;20200;-89
2022/09/25 10:39:02;;;;;;;4.67;1.80;;;16.00;99.90;;;;;;5137056;27;20207;-89
2022/09/25 10:41:42;;;;;;;4.13;1.50;;;16.10;99.90;;;;;;5137754;27;20258;-86
2022/09/25 10:44:22;;;;;;;2.60;1.40;;;16.50;99.90;;;;;;5137354;27;20204;-86
2022/09/25 10:52:42;;;;;;;4.10;1.80;;;16.50;99.90;;;;;;5137145;27;20200;-85
2022/09/25 10:55:15;;;;;;;3.47;1.47;;;16.50;99.90;;;;;;5138821;27;20184;-86
2022/09/25 10:57:45;;;;;;;3.77;1.70;;;16.30;99.90;;;;;;5144884;27;20551;-86
2022/09/25 11:00:22;;;;;;;2.97;1.73;;;16.30;99.90;;;;;;5148028;27;20216;-85
2022/09/25 11:02:52;;;;;;;2.50;1.33;;;16.30;99.90;;;;;;5122664;27;20238;-86
2022/09/25 11:05:24;;;;;;;3.40;1.60;;;16.40;99.90;;;;;;5129652;27;20208;-86
2022/09/25 11:07:54;;;;;;;3.63;1.47;;;16.60;99.90;;;;;;5125004;27;20190;-86
2022/09/25 11:10:23;;;;;;;5.23;1.17;;;16.80;99.90;;;;;;5126567;27;20655;-87
2022/09/25 11:12:56;;;;;;;2.73;1.43;;;17.10;99.90;;;;;;5137875;27;20206;-87
2022/09/25 11:15:26;;;;;;;4.10;1.70;;;16.70;99.90;;;;;;5117896;28;20296;-86
2022/09/25 11:17:55;;;;;;;2.27;1.07;;;16.70;99.90;;;;;;5116544;28;20458;-88
2022/09/25 11:20:28;;;;;;;4.30;1.20;;;16.80;99.90;;;;;;5130796;27;20232;-88
2022/09/25 11:23:03;;;;;;;2.80;1.30;;;16.80;99.90;;;;;;5116378;27;20429;-83
2022/09/25 11:25:38;;;;;;;2.17;1.30;;;16.90;99.90;;;;;;5116133;28;20653;-83
2022/09/25 11:28:13;;;;;;;5.97;1.43;;;17.00;99.90;;;;;;5116270;28;20210;-80
2022/09/25 11:30:44;;;;;;;2.20;1.30;;;17.40;99.90;;;;;;5116093;28;20213;-81
2022/09/25 11:33:23;;;;;;;3.30;1.10;;;17.40;99.90;;;;;;5115559;28;20215;-83
2022/09/25 11:35:54;;;;;;;4.63;1.50;;;17.50;99.90;;;;;;5121369;27;20210;-83
2022/09/25 11:41:23;;;;;;;2.47;1.30;;;17.30;99.90;;;;;;5115140;28;20280;-82
2022/09/25 11:43:59;;;;;;;2.77;1.40;;;17.10;99.90;;;;;;5114764;28;20199;-82
2022/09/25 11:46:36;;;;;;;6.13;1.90;;;17.00;99.90;;;;;;5114253;28;20256;-82
2022/09/25 11:49:14;;;;;;;3.73;1.60;;;16.70;99.90;;;;;;5114832;28;20738;-81
2022/09/25 11:52:20;;;;;;;2.63;1.60;;;16.70;99.90;;;;;;5115121;28;20209;-82
2022/09/25 11:55:14;;;;;;;2.90;1.50;;;16.80;99.90;;;;;;5114079;28;20218;-83
2022/09/25 11:57:54;;;;;;;4.00;1.70;;;17.10;99.90;;;;;;5120848;27;20195;-82
2022/09/25 12:00:27;;;;;;;2.93;1.60;;;17.50;99.90;;;;;;5122261;27;20305;-82
2022/09/25 12:03:10;;;;;;;3.47;1.37;;;17.50;99.90;;;;;;5124238;27;20199;-82
2022/09/25 12:05:54;;;;;;;2.57;1.70;;;17.50;99.90;;;;;;5124030;27;20202;-88
2022/09/25 12:08:32;;;;;;;2.40;1.50;;;17.50;99.90;;;;;;5115354;28;20211;-84
2022/09/25 12:11:10;;;;;;;9.03;2.53;;;17.10;99.90;;;;;;5117910;28;20185;-87
2022/09/25 12:13:48;;;;;;;5.03;2.03;;;16.30;99.90;;;;;;5117944;28;20271;-88
2022/09/25 12:16:22;;;;;;;3.37;1.67;;;15.60;99.90;;;;;;5123978;27;20207;-88
2022/09/25 12:19:09;;;;;;;3.33;2.00;;;15.20;99.90;;;;;;5136627;27;20201;-88
2022/09/25 12:21:46;;;;;;;5.73;2.17;;;15.00;99.90;;;;;;5136370;27;20229;-86
2022/09/25 12:24:25;;;;;;;4.57;2.20;;;14.80;99.90;;;;;;5136380;27;20922;-86
2022/09/25 12:26:56;;;;;;;4.77;2.17;;;14.60;99.90;;;;;;5136867;27;20211;-86
2022/09/25 12:29:41;;;;;;;4.73;2.30;;;14.70;99.90;;;;;;5135620;27;20668;-87
2022/09/25 12:32:27;;;;;;;6.67;2.20;;;15.00;99.90;;;;;;5135884;27;20207;-86
2022/09/25 12:35:09;;;;;;;2.33;1.73;;;15.30;99.90;;;;;;5135833;27;20216;-86
2022/09/25 12:37:42;;;;;;;2.83;2.10;;;15.50;99.90;;;;;;5136003;27;20209;-85
2022/09/25 12:40:18;;;;;;;4.30;2.30;;;15.60;99.90;;;;;;5136067;27;20252;-88
2022/09/25 12:42:52;;;;;;;4.10;2.17;;;15.80;99.90;;;;;;5135799;27;20203;-85
2022/09/25 12:45:31;;;;;;;4.27;3.13;;;15.90;99.90;;;;;;5135334;27;20192;-86
2022/09/25 12:48:10;;;;;;;3.83;1.90;;;15.90;99.90;;;;;;5135805;27;20202;-87
2022/09/25 12:50:44;;;;;;;4.33;2.90;;;15.90;99.90;;;;;;5135689;27;20225;-87
2022/09/25 12:53:25;;;;;;;3.53;2.27;;;16.10;99.90;;;;;;5131136;27;20193;-86
2022/09/25 12:55:57;;;;;;;3.63;2.00;;;16.30;99.90;;;;;;5113933;27;20220;-85
2022/09/25 12:58:37;;;;;;;2.97;1.20;;;16.30;99.90;;;;;;5114000;28;20573;-85
2022/09/25 13:01:12;;;;;;;1.63;0.87;;;16.00;99.90;;;;;;5113897;28;20596;-85
2022/09/25 13:03:48;;;;;;;1.40;0.83;;;16.00;99.90;;;;;;5114162;28;20207;-85
2022/09/25 13:06:23;;;;;;;2.90;0.80;;;16.20;99.90;;;;;;5114074;28;20206;-84
2022/09/25 13:08:57;;;;;;;2.50;1.17;;;16.20;99.90;;;;;;5114700;28;20235;-85
2022/09/25 13:11:37;;;;;;;3.00;1.23;;;16.10;99.90;;;;;;5114516;28;20220;-85
2022/09/25 13:14:15;;;;;;;2.73;1.30;;;16.20;99.90;;;;;;5113907;28;20575;-84
2022/09/25 13:16:45;;;;;;;3.03;1.13;;;16.30;99.90;;;;;;5113602;28;20207;-85
2022/09/25 13:19:25;;;;;;;1.67;1.00;;;16.40;99.90;;;;;;5113173;28;20554;-85
2022/09/25 13:22:02;;;;;;;1.70;0.60;;;16.50;99.90;;;;;;5113531;28;20217;-84
2022/09/25 13:24:44;;;;;;;2.47;1.00;;;16.60;99.90;;;;;;5113881;28;20215;-84
2022/09/25 13:27:18;;;;;;;1.03;0.80;;;16.70;99.90;;;;;;5113982;28;20186;-84
2022/09/25 13:29:56;;;;;;;2.13;1.00;;;16.80;99.90;;;;;;5112932;28;20474;-85
2022/09/25 13:32:27;;;;;;;1.80;0.50;;;17.00;99.90;;;;;;5114561;28;20191;-87
2022/09/25 13:35:00;;;;;;;0.60;0.50;;;17.20;99.90;;;;;;5114356;28;20259;-84
2022/09/25 13:37:31;;;;;;;1.00;0.57;;;17.50;99.90;;;;;;5114159;28;20204;-85
2022/09/25 13:42:47;;;;;;;2.63;1.10;;;17.70;99.90;;;;;;5113730;28;20650;-86
2022/09/25 13:45:32;;;;;;;1.67;0.80;;;17.80;99.90;;;;;;5114156;28;20208;-85